createdAt,value
2018-02-25T00:00:17.274Z,54.93
2018-02-25T00:02:18.808Z,55.12
2018-02-25T00:04:20.395Z,54.84
2018-02-25T00:07:43.782Z,55.03
2018-02-25T00:09:45.671Z,54.93
2018-02-25T00:11:47.250Z,54.93
2018-02-25T00:13:49.003Z,54.93
2018-02-25T00:15:50.591Z,54.74
2018-02-25T00:17:52.448Z,55.03
2018-02-25T00:19:54.414Z,54.93
2018-02-25T00:23:18.629Z,54.74
2018-02-25T00:25:20.076Z,55.03
2018-02-25T00:28:02.782Z,54.65
2018-02-25T00:30:04.481Z,54.74
2018-02-25T00:32:05.986Z,54.37
2018-02-25T00:34:07.577Z,55.22
2018-02-25T00:36:09.183Z,54.93
2018-02-25T00:38:10.640Z,54.93
2018-02-25T00:40:12.203Z,55.22
2018-02-25T00:42:13.707Z,54.84
2018-02-25T00:44:15.604Z,55.22
2018-02-25T00:46:57.982Z,54.65
2018-02-25T00:48:59.774Z,54.93
2018-02-25T00:51:01.463Z,54.93
2018-02-25T00:54:24.802Z,55.22
2018-02-25T00:56:26.207Z,54.84
2018-02-25T00:59:09.679Z,54.65
2018-02-25T01:01:11.075Z,55.22
2018-02-25T01:03:53.565Z,55.41
2018-02-25T01:05:54.950Z,55.12
2018-02-25T01:08:38.461Z,54.93
2018-02-25T01:10:40.192Z,54.74
2018-02-25T01:12:41.636Z,54.65
2018-02-25T01:15:25.313Z,55.31
2018-02-25T01:17:26.732Z,55.10
2018-02-25T01:19:28.207Z,55.38
2018-02-25T01:21:29.997Z,55.47
2018-02-25T01:23:31.467Z,56.32
2018-02-25T01:25:33.004Z,55.66
2018-02-25T01:28:15.406Z,55.76
2018-02-25T01:30:16.898Z,55.85
2018-02-25T01:32:18.690Z,56.23
2018-02-25T01:34:20.468Z,56.04
2018-02-25T01:36:22.036Z,55.76
2018-02-25T01:38:23.636Z,56.23
2018-02-25T01:40:25.595Z,56.04
2018-02-25T01:43:08.741Z,56.32
2018-02-25T01:45:10.159Z,56.04
2018-02-25T01:47:52.563Z,56.42
2018-02-25T01:49:54.013Z,56.32
2018-02-25T01:51:55.528Z,56.13
2018-02-25T01:53:56.932Z,56.51
2018-02-25T01:55:58.421Z,56.23
2018-02-25T01:58:00.118Z,56.51
2018-02-25T02:00:01.967Z,56.61
2018-02-25T02:02:03.815Z,56.61
2018-02-25T02:04:05.677Z,56.23
2018-02-25T02:06:07.237Z,56.51
2018-02-25T02:08:08.883Z,56.32
2018-02-25T02:10:10.591Z,56.23
2018-02-25T02:12:12.242Z,56.70
2018-02-25T02:15:35.570Z,56.99
2018-02-25T02:18:17.978Z,57.18
2018-02-25T02:21:01.682Z,57.46
2018-02-25T02:23:03.449Z,57.65
2018-02-25T02:25:46.071Z,57.27
2018-02-25T02:27:47.568Z,57.46
2018-02-25T02:29:49.207Z,57.46
2018-02-25T02:31:50.648Z,57.74
2018-02-25T02:33:52.228Z,58.03
2018-02-25T02:35:53.867Z,57.93
2018-02-25T02:37:55.390Z,57.93
2018-02-25T02:40:37.765Z,57.65
2018-02-25T02:42:39.399Z,57.46
2018-02-25T02:44:41.001Z,57.93
2018-02-25T02:46:42.450Z,58.12
2018-02-25T02:49:26.818Z,57.84
2018-02-25T02:51:28.657Z,57.55
2018-02-25T02:53:30.118Z,57.65
2018-02-25T02:55:31.811Z,57.55
2018-02-25T02:58:15.376Z,58.03
2018-02-25T03:00:16.945Z,57.84
2018-02-25T03:02:18.601Z,57.74
2018-02-25T03:04:20.124Z,57.84
2018-02-25T03:06:21.784Z,57.37
2018-02-25T03:08:23.598Z,57.84
2018-02-25T03:10:25.133Z,57.74
2018-02-25T03:12:26.999Z,57.74
2018-02-25T03:14:28.810Z,57.84
2018-02-25T03:16:30.624Z,57.84
2018-02-25T03:18:32.421Z,57.93
2018-02-25T03:20:34.145Z,57.93
2018-02-25T03:22:35.844Z,57.37
2018-02-25T03:25:17.202Z,58.22
2018-02-25T03:27:18.803Z,58.59
2018-02-25T03:29:20.281Z,58.12
2018-02-25T03:31:21.807Z,57.93
2018-02-25T03:33:23.271Z,58.22
2018-02-25T03:35:25.007Z,58.40
2018-02-25T03:37:26.590Z,58.40
2018-02-25T03:39:28.401Z,57.93
2018-02-25T03:41:29.997Z,58.12
2018-02-25T03:43:31.810Z,57.65
2018-02-25T03:45:33.599Z,57.37
2018-02-25T03:47:35.221Z,57.37
2018-02-25T03:49:36.898Z,58.12
2018-02-25T03:51:38.606Z,58.69
2018-02-25T03:53:40.463Z,58.40
2018-02-25T03:55:42.256Z,58.22
2018-02-25T03:57:44.003Z,58.40
2018-02-25T03:59:45.770Z,58.40
2018-02-25T04:01:47.561Z,58.40
2018-02-25T04:04:31.929Z,58.50
2018-02-25T04:06:33.731Z,58.40
2018-02-25T04:08:35.232Z,58.59
2018-02-25T04:10:36.851Z,58.97
2018-02-25T04:13:19.250Z,58.84
2018-02-25T04:15:21.134Z,59.22
2018-02-25T04:18:03.890Z,59.13
2018-02-25T04:21:28.087Z,59.13
2018-02-25T04:24:10.472Z,58.84
2018-02-25T04:26:13.241Z,59.51
2018-02-25T04:28:14.683Z,59.70
2018-02-25T04:30:16.424Z,59.98
2018-02-25T04:32:18.072Z,60.17
2018-02-25T04:34:19.827Z,60.74
2018-02-25T04:36:21.405Z,60.55
2018-02-25T04:38:23.172Z,59.98
2018-02-25T04:40:24.962Z,59.79
2018-02-25T04:42:26.580Z,59.60
2018-02-25T04:44:28.484Z,60.08
2018-02-25T04:46:30.211Z,59.98
2018-02-25T04:48:31.882Z,60.08
2018-02-25T04:50:33.722Z,60.64
2018-02-25T04:52:35.464Z,60.17
2018-02-25T04:54:37.174Z,60.17
2018-02-25T04:56:38.994Z,60.64
2018-02-25T04:58:40.857Z,60.74
2018-02-25T05:00:42.535Z,61.11
2018-02-25T05:03:24.965Z,60.74
2018-02-25T05:05:27.048Z,60.83
2018-02-25T05:07:28.828Z,60.36
2018-02-25T05:09:30.243Z,60.17
2018-02-25T05:12:13.371Z,60.93
2018-02-25T05:14:15.082Z,61.11
2018-02-25T05:17:38.383Z,60.93
2018-02-25T05:19:39.936Z,61.30
2018-02-25T05:22:23.692Z,61.11
2018-02-25T05:25:07.545Z,60.83
2018-02-25T05:27:08.977Z,61.40
2018-02-25T05:30:33.611Z,61.11
2018-02-25T05:33:16.827Z,61.02
2018-02-25T05:35:17.906Z,61.02
2018-02-25T05:37:19.619Z,61.11
2018-02-25T05:39:21.190Z,61.21
2018-02-25T05:41:22.675Z,61.40
2018-02-25T05:43:24.435Z,62.06
2018-02-25T05:45:26.104Z,62.06
2018-02-25T05:47:28.046Z,61.96
2018-02-25T05:49:29.921Z,62.15
2018-02-25T05:51:31.761Z,61.68
2018-02-25T05:53:33.382Z,61.49
2018-02-25T05:56:16.902Z,61.49
2018-02-25T05:58:18.526Z,61.68
2018-02-25T06:00:20.104Z,61.40
2018-02-25T06:02:21.546Z,61.68
2018-02-25T06:04:23.087Z,61.87
2018-02-25T06:07:05.456Z,62.25
2018-02-25T06:09:06.928Z,62.25
2018-02-25T06:11:08.417Z,62.72
2018-02-25T06:13:09.883Z,62.72
2018-02-25T06:15:11.401Z,63.10
2018-02-25T06:17:13.253Z,62.62
2018-02-25T06:19:14.828Z,62.72
2018-02-25T06:21:16.508Z,63.00
2018-02-25T06:23:18.238Z,62.72
2018-02-25T06:25:19.847Z,62.72
2018-02-25T06:27:21.804Z,63.19
2018-02-25T06:29:23.310Z,63.00
2018-02-25T06:31:25.010Z,63.29
2018-02-25T06:33:26.780Z,63.29
2018-02-25T06:35:28.378Z,63.29
2018-02-25T06:38:10.795Z,63.29
2018-02-25T06:40:12.208Z,63.85
2018-02-25T06:42:14.141Z,63.76
2018-02-25T06:44:17.110Z,63.67
2018-02-25T06:46:18.615Z,64.23
2018-02-25T06:48:20.573Z,63.95
2018-02-25T06:50:22.316Z,63.38
2018-02-25T06:52:24.241Z,63.00
2018-02-25T06:54:25.983Z,62.91
2018-02-25T06:56:27.738Z,62.72
2018-02-25T06:58:29.478Z,63.00
2018-02-25T07:00:31.191Z,62.62
2018-02-25T07:02:33.016Z,63.10
2018-02-25T07:04:34.716Z,62.81
2018-02-25T07:06:36.414Z,62.72
2018-02-25T07:08:38.153Z,62.91
2018-02-25T07:10:41.101Z,62.62
2018-02-25T07:13:22.812Z,62.34
2018-02-25T07:16:05.594Z,62.62
2018-02-25T07:18:08.044Z,63.10
2018-02-25T07:20:49.742Z,63.00
2018-02-25T07:22:51.277Z,62.81
2018-02-25T07:24:53.315Z,62.34
2018-02-25T07:26:54.723Z,62.44
2018-02-25T07:29:37.858Z,62.34
2018-02-25T07:31:39.861Z,62.72
2018-02-25T07:33:41.923Z,62.15
2018-02-25T07:35:43.503Z,62.06
2018-02-25T07:37:46.462Z,61.96
2018-02-25T07:39:48.446Z,62.15
2018-02-25T07:41:50.282Z,61.96
2018-02-25T07:43:52.030Z,61.68
2018-02-25T07:45:56.421Z,61.68
2018-02-25T07:47:58.064Z,60.83
2018-02-25T07:50:39.679Z,61.96
2018-02-25T07:52:41.328Z,62.53
2018-02-25T07:54:42.729Z,61.49
2018-02-25T07:56:45.193Z,61.87
2018-02-25T07:58:46.899Z,61.40
2018-02-25T08:00:49.084Z,61.24
2018-02-25T08:02:50.932Z,61.30
2018-02-25T08:04:52.858Z,60.77
2018-02-25T08:06:54.904Z,59.63
2018-02-25T08:08:56.784Z,59.63
2018-02-25T08:10:58.478Z,58.87
2018-02-25T08:13:00.100Z,58.87
2018-02-25T08:15:01.811Z,58.22
2018-02-25T08:17:03.505Z,57.27
2018-02-25T08:19:08.810Z,55.60
2018-02-25T08:21:10.229Z,51.89
2018-02-25T08:23:11.961Z,46.54
2018-02-25T08:25:14.546Z,42.77
2018-02-25T08:27:16.285Z,42.11
2018-02-25T12:20:41.901Z,34.77
2018-02-25T12:22:43.447Z,36.47
2018-02-25T12:24:45.480Z,36.29
2018-02-25T12:26:47.488Z,36.47
2018-02-25T12:28:49.509Z,35.43
2018-02-25T12:31:33.472Z,35.72
2018-02-25T12:33:35.127Z,35.15
2018-02-25T12:35:37.870Z,34.56
2018-02-25T12:37:39.362Z,35.98
2018-02-25T12:39:40.834Z,36.55
2018-02-25T12:42:23.737Z,38.37
2018-02-25T12:44:27.211Z,37.52
2018-02-25T12:46:28.720Z,36.38
2018-02-25T12:48:30.229Z,36.19
2018-02-25T12:50:32.922Z,36.76
2018-02-25T12:52:34.943Z,36.38
2018-02-25T12:54:37.503Z,36.66
2018-02-25T12:56:39.903Z,37.71
2018-02-25T12:58:41.608Z,37.63
2018-02-25T13:01:25.990Z,37.44
2018-02-25T13:03:28.127Z,36.49
2018-02-25T13:05:30.700Z,36.30
2018-02-25T13:07:32.432Z,35.45
2018-02-25T13:09:34.524Z,35.34
2018-02-25T13:11:37.043Z,34.86
2018-02-25T13:13:39.093Z,35.43
2018-02-25T13:15:40.698Z,35.72
2018-02-25T13:17:42.765Z,36.95
2018-02-25T13:19:44.396Z,37.61
2018-02-25T13:22:27.522Z,36.21
2018-02-25T13:24:30.168Z,36.49
2018-02-25T13:26:31.435Z,34.48
2018-02-25T13:28:34.060Z,35.24
2018-02-25T13:30:35.967Z,34.67
2018-02-25T13:32:38.450Z,34.86
2018-02-25T13:34:40.573Z,34.67
2018-02-25T13:36:42.587Z,35.24
2018-02-25T13:38:44.690Z,35.53
2018-02-25T13:41:27.295Z,36.38
2018-02-25T13:43:30.157Z,36.47
2018-02-25T13:45:32.052Z,36.57
2018-02-25T13:47:33.598Z,36.19
2018-02-25T13:49:35.273Z,36.17
2018-02-25T13:51:37.331Z,37.69
2018-02-25T13:53:39.789Z,37.97
2018-02-25T13:56:23.316Z,38.16
2018-02-25T13:58:24.969Z,37.88
2018-02-25T14:01:08.537Z,38.16
2018-02-25T14:03:10.010Z,37.69
2018-02-25T14:05:11.616Z,37.02
2018-02-25T14:07:13.603Z,37.14
2018-02-25T14:09:15.173Z,37.52
2018-02-25T14:11:17.260Z,37.23
2018-02-25T14:13:19.345Z,36.95
2018-02-25T14:15:20.946Z,37.04
2018-02-25T14:17:23.594Z,37.71
2018-02-25T14:20:06.937Z,37.42
2018-02-25T14:22:08.407Z,36.76
2018-02-25T14:24:10.275Z,36.55
2018-02-25T14:26:11.687Z,36.74
2018-02-25T14:28:14.313Z,37.88
2018-02-25T14:30:15.891Z,37.59
2018-02-25T14:32:17.629Z,37.69
2018-02-25T14:34:19.285Z,36.85
2018-02-25T14:36:21.027Z,36.76
2018-02-25T14:38:22.822Z,37.14
2018-02-25T14:41:07.325Z,37.88
2018-02-25T14:43:09.825Z,37.50
2018-02-25T14:45:11.149Z,37.69
2018-02-25T14:47:13.602Z,36.83
2018-02-25T14:49:16.260Z,36.74
2018-02-25T14:51:18.293Z,36.36
2018-02-25T14:53:20.100Z,36.55
2018-02-25T14:55:22.576Z,36.66
2018-02-25T14:57:24.680Z,36.83
2018-02-25T15:00:08.285Z,37.97
2018-02-25T15:02:10.439Z,38.16
2018-02-25T15:04:11.800Z,40.44
2018-02-25T15:06:13.504Z,40.72
2018-02-25T15:08:16.148Z,41.28
2018-02-25T15:10:17.853Z,41.00
2018-02-25T15:12:20.251Z,41.38
2018-02-25T15:14:23.054Z,41.76
2018-02-25T15:16:24.732Z,41.28
2018-02-25T15:19:07.485Z,41.00
2018-02-25T15:21:09.027Z,41.28
2018-02-25T15:23:10.504Z,41.76
2018-02-25T15:25:12.785Z,40.81
2018-02-25T15:27:14.907Z,41.19
2018-02-25T15:29:16.519Z,40.63
2018-02-25T15:31:18.978Z,41.00
2018-02-25T15:34:02.180Z,41.57
2018-02-25T15:36:04.270Z,41.66
2018-02-25T15:38:05.734Z,41.00
2018-02-25T15:40:07.206Z,41.28
2018-02-25T15:42:09.238Z,41.47
2018-02-25T15:44:11.574Z,42.04
2018-02-25T15:46:13.147Z,42.04
2018-02-25T15:48:15.011Z,41.47
2018-02-25T15:50:17.155Z,41.74
2018-02-25T15:52:19.260Z,42.11
2018-02-25T15:55:02.052Z,42.40
2018-02-25T15:57:03.522Z,42.21
2018-02-25T15:59:05.501Z,42.40
2018-02-25T16:01:06.959Z,42.30
2018-02-25T16:03:08.522Z,42.30
2018-02-25T16:05:10.757Z,42.50
2018-02-25T16:07:12.334Z,42.30
2018-02-25T16:09:14.038Z,42.50
2018-02-25T16:11:15.713Z,42.40
2018-02-25T16:13:58.439Z,42.59
2018-02-25T16:15:59.826Z,43.26
2018-02-25T16:18:01.858Z,43.44
2018-02-25T16:20:03.668Z,44.01
2018-02-25T16:22:05.971Z,43.91
2018-02-25T16:24:07.456Z,44.58
2018-02-25T16:26:09.174Z,44.01
2018-02-25T16:28:10.897Z,43.91
2018-02-25T16:30:13.105Z,43.82
2018-02-25T16:32:55.517Z,44.20
2018-02-25T16:34:56.939Z,44.58
2018-02-25T16:36:59.499Z,44.77
2018-02-25T16:39:00.925Z,44.58
2018-02-25T16:41:02.521Z,45.62
2018-02-25T16:43:04.227Z,45.53
2018-02-25T16:45:05.927Z,45.81
2018-02-25T16:47:08.236Z,46.19
2018-02-25T16:49:09.895Z,46.85
2018-02-25T16:51:12.171Z,47.42
2018-02-25T16:53:13.840Z,47.61
2018-02-25T16:55:15.650Z,46.66
2018-02-25T16:57:17.427Z,46.75
2018-02-25T16:59:19.609Z,47.23
2018-02-25T17:01:21.276Z,47.61
2018-02-25T17:03:23.049Z,48.18
2018-02-25T17:05:24.681Z,48.36
2018-02-25T17:07:26.422Z,47.80
2018-02-25T17:10:08.836Z,48.34
2018-02-25T17:12:10.321Z,48.27
2018-02-25T17:14:12.612Z,48.46
2018-02-25T17:16:14.209Z,48.55
2018-02-25T17:18:15.737Z,48.18
2018-02-25T17:20:17.524Z,48.36
2018-02-25T17:22:19.742Z,48.27
2018-02-25T17:24:21.395Z,49.29
2018-02-25T17:26:23.096Z,49.29
2018-02-25T17:28:24.742Z,49.95
2018-02-25T17:30:26.475Z,49.38
2018-02-25T17:33:09.061Z,49.95
2018-02-25T17:35:10.511Z,49.79
2018-02-25T17:37:12.039Z,49.88
2018-02-25T17:39:13.563Z,49.79
2018-02-25T17:41:14.976Z,50.45
2018-02-25T17:43:16.508Z,51.18
2018-02-25T17:45:18.189Z,51.58
2018-02-25T17:47:19.923Z,52.60
2018-02-25T17:49:22.411Z,53.83
2018-02-25T17:51:24.064Z,53.55
2018-02-25T17:54:07.668Z,53.26
2018-02-25T17:56:10.019Z,53.28
2018-02-25T17:58:11.483Z,53.85
2018-02-25T18:00:12.968Z,54.02
2018-02-25T18:02:14.505Z,55.06
2018-02-25T18:04:16.031Z,54.87
2018-02-25T18:06:17.743Z,55.25
2018-02-25T18:08:19.464Z,56.10
2018-02-25T18:10:21.269Z,56.57
2018-02-25T18:13:03.840Z,56.20
2018-02-25T18:15:06.661Z,56.48
2018-02-25T18:17:08.124Z,56.85
2018-02-25T18:19:09.635Z,57.23
2018-02-25T18:21:11.298Z,57.71
2018-02-25T18:23:13.013Z,57.80
2018-02-25T18:25:15.621Z,57.71
2018-02-25T18:27:18.877Z,58.56
2018-02-25T18:29:20.596Z,58.47
2018-02-25T18:32:03.259Z,58.84
2018-02-25T18:34:05.234Z,58.75
2018-02-25T18:36:06.682Z,58.94
2018-02-25T18:38:08.930Z,59.50
2018-02-25T18:40:10.715Z,59.69
2018-02-25T18:42:12.253Z,60.26
2018-02-25T18:44:13.956Z,60.07
2018-02-25T18:46:15.672Z,59.88
2018-02-25T18:48:18.741Z,59.98
2018-02-25T18:50:22.503Z,60.07
2018-02-25T18:53:05.097Z,60.07
2018-02-25T18:55:07.931Z,60.36
2018-02-25T18:57:10.313Z,60.93
2018-02-25T18:59:11.714Z,61.21
2018-02-25T19:01:13.299Z,61.30
2018-02-25T19:03:15.009Z,61.65
2018-02-25T19:05:16.731Z,61.93
2018-02-25T19:07:19.954Z,62.44
2018-02-25T19:09:22.413Z,61.87
2018-02-25T19:12:03.816Z,62.34
2018-02-25T19:14:06.488Z,61.96
2018-02-25T19:16:09.527Z,61.77
2018-02-25T19:18:12.385Z,61.68
2018-02-25T19:20:15.260Z,61.68
2018-02-25T19:22:19.092Z,61.58
2018-02-25T19:24:23.291Z,61.58
2018-02-25T19:26:26.842Z,61.68
2018-02-25T19:28:30.506Z,61.68
2018-02-25T19:31:15.517Z,62.15
2018-02-25T19:33:19.921Z,62.63
2018-02-25T19:35:25.113Z,62.78
2018-02-25T19:37:28.052Z,62.31
2018-02-25T19:39:31.034Z,62.69
2018-02-25T19:41:34.921Z,62.69
2018-02-25T19:43:38.055Z,62.50
2018-02-25T19:46:21.157Z,62.88
2018-02-25T19:48:24.606Z,62.88
2018-02-25T19:51:09.390Z,62.97
2018-02-25T19:53:13.591Z,62.97
2018-02-25T19:55:16.240Z,63.54
2018-02-25T19:57:22.139Z,63.26
2018-02-25T19:59:27.022Z,63.64
2018-02-25T20:01:32.630Z,64.01
2018-02-25T20:03:39.575Z,64.20
2018-02-25T20:05:42.013Z,64.11
2018-02-25T20:07:45.138Z,64.20
2018-02-25T20:10:30.587Z,64.29
2018-02-25T20:12:36.653Z,64.86
2018-02-25T20:14:42.322Z,64.96
2018-02-25T20:16:46.443Z,65.43
2018-02-25T20:18:49.329Z,64.96
2018-02-25T20:20:53.086Z,65.43
2018-02-25T20:22:58.287Z,65.34
2018-02-25T20:25:01.584Z,65.53
2018-02-25T20:27:47.233Z,66.00
2018-02-25T20:30:31.126Z,66.47
2018-02-25T20:32:34.416Z,66.56
2018-02-25T20:34:39.190Z,66.56
2018-02-25T20:36:42.860Z,66.56
2018-02-25T20:38:48.145Z,66.85
2018-02-25T20:40:52.641Z,67.22
2018-02-25T20:42:54.465Z,67.41
2018-02-25T20:44:56.177Z,67.41
2018-02-25T20:46:58.630Z,67.98
2018-02-25T20:49:41.151Z,68.55
2018-02-25T20:51:43.776Z,69.31
2018-02-25T20:53:46.286Z,69.49
2018-02-25T20:55:49.166Z,69.12
2018-02-25T20:57:50.706Z,69.21
2018-02-25T20:59:53.642Z,69.12
2018-02-25T21:01:56.100Z,69.40
2018-02-25T21:03:58.432Z,69.78
2018-02-25T21:06:41.421Z,70.06
2018-02-25T21:09:23.966Z,70.63
2018-02-25T21:11:25.543Z,70.06
2018-02-25T21:13:27.375Z,70.25
2018-02-25T21:15:28.749Z,70.63
2018-02-25T21:17:31.215Z,70.25
2018-02-25T21:19:32.712Z,69.49
2018-02-25T21:21:34.362Z,69.68
2018-02-25T21:23:36.003Z,69.87
2018-02-25T21:25:38.316Z,69.12
2018-02-25T21:27:39.768Z,69.31
2018-02-25T21:29:41.414Z,69.40
2018-02-25T21:31:43.709Z,69.49
2018-02-25T21:33:45.367Z,69.12
2018-02-25T21:35:47.673Z,69.02
2018-02-25T21:37:49.873Z,69.68
2018-02-25T21:39:51.329Z,68.27
2018-02-25T21:41:53.020Z,68.36
2018-02-25T21:43:54.683Z,68.46
2018-02-25T21:45:56.379Z,67.70
2018-02-25T21:48:38.857Z,67.70
2018-02-25T21:50:40.251Z,68.17
2018-02-25T21:52:42.836Z,67.89
2018-02-25T21:54:44.309Z,67.60
2018-02-25T21:56:46.875Z,67.51
2018-02-25T21:58:48.390Z,67.51
2018-02-25T22:00:50.657Z,67.22
2018-02-25T22:02:52.271Z,67.70
2018-02-25T22:04:54.576Z,67.70
2018-02-25T22:06:56.208Z,67.89
2018-02-25T22:10:19.561Z,67.70
2018-02-25T22:12:21.884Z,67.51
2018-02-25T22:14:24.806Z,67.51
2018-02-25T22:16:26.109Z,67.41
2018-02-25T22:18:28.739Z,67.51
2018-02-25T22:20:30.501Z,67.98
2018-02-25T22:22:32.261Z,67.22
2018-02-25T22:24:34.133Z,67.89
2018-02-25T22:27:17.232Z,67.60
2018-02-25T22:29:18.630Z,67.41
2018-02-25T22:31:20.087Z,67.51
2018-02-25T22:33:21.559Z,67.51
2018-02-25T22:35:24.118Z,67.32
2018-02-25T22:37:25.729Z,67.22
2018-02-25T22:39:27.242Z,67.03
2018-02-25T22:41:28.899Z,67.60
2018-02-25T22:43:30.504Z,67.03
2018-02-25T22:45:32.679Z,66.94
2018-02-25T22:48:17.003Z,67.13
2018-02-25T22:50:19.364Z,67.22
2018-02-25T22:52:20.789Z,67.41
2018-02-25T22:54:22.338Z,67.51
2018-02-25T22:56:23.970Z,67.51
2018-02-25T22:58:25.585Z,67.70
2018-02-25T23:00:27.290Z,67.51
2018-02-25T23:02:28.908Z,67.03
2018-02-25T23:04:30.619Z,65.91
2018-02-25T23:06:32.284Z,65.91
2018-02-25T23:08:34.696Z,65.91
2018-02-25T23:10:37.097Z,65.72
2018-02-25T23:12:39.403Z,66.66
2018-02-25T23:14:41.062Z,65.72
2018-02-25T23:16:42.728Z,65.72
2018-02-25T23:18:44.386Z,65.81
2018-02-25T23:20:46.090Z,66.00
2018-02-25T23:22:47.803Z,65.53
2018-02-25T23:24:49.479Z,65.81
2018-02-25T23:26:51.089Z,66.47
2018-02-25T23:28:53.391Z,66.85
2018-02-25T23:30:54.990Z,67.51
2018-02-25T23:32:56.695Z,67.60
2018-02-25T23:34:58.999Z,67.79
2018-02-25T23:37:01.218Z,67.60
2018-02-25T23:39:03.405Z,67.51
2018-02-25T23:41:05.014Z,67.13
2018-02-25T23:43:06.668Z,67.32
2018-02-25T23:45:08.318Z,67.13
2018-02-25T23:47:10.000Z,66.94
2018-02-25T23:49:11.665Z,67.22
2018-02-25T23:51:13.310Z,67.51
2018-02-25T23:53:15.685Z,67.32
2018-02-25T23:55:17.272Z,67.51
2018-02-25T23:57:19.001Z,67.89
